createdAt,value
2019-05-01T00:03:19.780Z,12.59
2019-05-01T00:06:26.187Z,12.85
2019-05-01T00:09:29.497Z,12.66
2019-05-01T00:12:32.433Z,12.61
2019-05-01T00:15:37.551Z,12.32
2019-05-01T00:18:40.470Z,12.33
2019-05-01T00:21:43.488Z,12.34
2019-05-01T00:24:46.485Z,12.40
2019-05-01T00:27:49.543Z,12.29
2019-05-01T00:30:52.981Z,12.18
2019-05-01T00:33:56.028Z,11.97
2019-05-01T00:36:59.034Z,11.93
2019-05-01T00:40:01.991Z,12.23
2019-05-01T00:43:05.647Z,12.19
2019-05-01T00:46:08.560Z,12.04
2019-05-01T00:49:11.487Z,12.12
2019-05-01T00:52:14.395Z,11.73
2019-05-01T00:55:35.520Z,11.88
2019-05-01T00:59:12.824Z,12.03
2019-05-01T01:02:35.519Z,11.67
2019-05-01T01:05:38.444Z,11.68
2019-05-01T01:08:41.363Z,11.90
2019-05-01T01:11:44.658Z,11.84
2019-05-01T01:14:48.083Z,11.75
2019-05-01T01:17:50.985Z,11.61
2019-05-01T01:20:53.908Z,11.55
2019-05-01T01:23:57.572Z,11.63
2019-05-01T01:27:00.596Z,11.61
2019-05-01T01:30:05.769Z,11.57
2019-05-01T01:33:08.779Z,11.56
2019-05-01T01:36:11.711Z,11.85
2019-05-01T01:39:14.618Z,11.84
2019-05-01T01:42:18.228Z,11.68
2019-05-01T01:45:37.265Z,11.64
2019-05-01T01:48:40.222Z,11.57
2019-05-01T01:51:43.133Z,11.67
2019-05-01T01:54:46.560Z,11.71
2019-05-01T01:57:49.465Z,11.60
2019-05-01T02:01:12.291Z,11.33
2019-05-01T02:04:40.781Z,11.57
2019-05-01T02:07:44.683Z,11.37
2019-05-01T02:10:47.810Z,11.54
2019-05-01T02:13:54.896Z,11.30
2019-05-01T02:16:57.832Z,11.64
2019-05-01T02:20:00.864Z,11.27
2019-05-01T02:23:03.882Z,11.24
2019-05-01T02:26:08.811Z,11.12
2019-05-01T02:29:23.612Z,11.30
2019-05-01T02:32:28.735Z,11.34
2019-05-01T02:35:34.388Z,11.17
2019-05-01T02:38:39.995Z,11.42
2019-05-01T02:41:44.725Z,11.26
2019-05-01T02:44:51.650Z,11.08
2019-05-01T02:47:55.392Z,11.12
2019-05-01T02:51:02.382Z,11.13
2019-05-01T02:54:05.679Z,11.12
2019-05-01T02:57:13.230Z,11.23
2019-05-01T03:00:16.161Z,11.00
2019-05-01T03:03:20.182Z,11.18
2019-05-01T03:06:24.113Z,11.02
2019-05-01T03:09:27.113Z,11.06
2019-05-01T03:12:33.025Z,11.22
2019-05-01T03:15:36.872Z,11.23
2019-05-01T03:18:45.223Z,11.11
2019-05-01T03:21:57.234Z,11.30
2019-05-01T03:25:00.370Z,11.24
2019-05-01T03:28:03.687Z,11.19
2019-05-01T03:31:07.235Z,11.59
2019-05-01T03:34:10.358Z,11.32
2019-05-01T03:37:13.673Z,11.54
2019-05-01T03:40:16.599Z,11.54
2019-05-01T03:43:20.353Z,11.60
2019-05-01T03:46:23.276Z,11.38
2019-05-01T03:49:26.633Z,11.62
2019-05-01T03:52:30.496Z,11.67
2019-05-01T03:55:33.622Z,11.91
2019-05-01T03:58:37.539Z,11.82
2019-05-01T04:01:48.114Z,11.89
2019-05-01T04:04:51.129Z,11.92
2019-05-01T04:07:54.155Z,11.92
2019-05-01T04:10:57.261Z,11.85
2019-05-01T04:14:00.309Z,11.78
2019-05-01T04:17:11.873Z,11.61
2019-05-01T04:20:15.306Z,11.85
2019-05-01T04:23:18.728Z,12.14
2019-05-01T04:26:21.936Z,12.13
2019-05-01T04:29:30.840Z,12.13
2019-05-01T04:32:50.800Z,11.72
2019-05-01T04:35:57.136Z,12.13
2019-05-01T04:39:00.337Z,11.92
2019-05-01T04:42:03.542Z,12.07
2019-05-01T04:45:06.885Z,12.06
2019-05-01T04:48:10.049Z,12.18
2019-05-01T04:51:13.297Z,12.34
2019-05-01T04:54:17.024Z,12.15
2019-05-01T04:57:20.130Z,12.03
2019-05-01T05:00:23.048Z,12.31
2019-05-01T05:03:27.675Z,12.10
2019-05-01T05:06:30.597Z,12.48
2019-05-01T05:09:47.169Z,12.26
2019-05-01T05:13:04.730Z,12.34
2019-05-01T05:16:23.444Z,12.34
2019-05-01T05:19:26.732Z,12.26
2019-05-01T05:22:30.549Z,12.30
2019-05-01T05:25:34.359Z,12.29
2019-05-01T05:28:38.692Z,12.14
2019-05-01T05:31:44.176Z,11.77
2019-05-01T05:34:49.616Z,12.10
2019-05-01T05:38:15.512Z,12.03
2019-05-01T05:41:20.949Z,12.18
2019-05-01T05:44:24.817Z,12.19
2019-05-01T05:47:28.258Z,12.12
2019-05-01T05:50:42.464Z,12.17
2019-05-01T05:53:51.814Z,12.20
2019-05-01T05:57:00.058Z,12.12
2019-05-01T06:00:22.511Z,11.97
2019-05-01T06:03:47.825Z,12.09
2019-05-01T06:07:21.147Z,12.19
2019-05-01T06:10:36.544Z,12.40
2019-05-01T06:13:59.012Z,12.54
2019-05-01T06:17:12.727Z,12.19
2019-05-01T06:20:25.721Z,12.06
2019-05-01T06:23:34.774Z,12.10
2019-05-01T06:26:39.452Z,12.20
2019-05-01T06:29:43.344Z,12.10
2019-05-01T06:32:48.140Z,12.10
2019-05-01T06:35:51.272Z,12.27
2019-05-01T06:38:55.700Z,12.10
2019-05-01T06:41:58.734Z,12.32
2019-05-01T06:45:07.879Z,12.17
2019-05-01T06:48:14.166Z,12.23
2019-05-01T06:51:53.394Z,12.17
2019-05-01T06:54:55.343Z,12.21
2019-05-01T06:57:58.493Z,12.12
2019-05-01T07:01:01.392Z,12.32
2019-05-01T07:04:05.147Z,12.34
2019-05-01T07:07:24.090Z,12.63
2019-05-01T07:10:13.904Z,12.30
2019-05-01T07:13:17.162Z,11.86
2019-05-01T07:16:20.524Z,12.07
2019-05-01T07:19:43.340Z,11.96
2019-05-01T07:22:47.469Z,11.90
2019-05-01T07:25:50.425Z,12.08
2019-05-01T07:28:56.182Z,12.20
2019-05-01T07:32:01.691Z,12.08
2019-05-01T07:35:04.166Z,12.10
2019-05-01T07:38:07.516Z,12.05
2019-05-01T07:41:12.412Z,12.27
2019-05-01T07:44:29.993Z,12.07
2019-05-01T07:47:42.221Z,12.06
2019-05-01T07:50:45.548Z,12.00
2019-05-01T07:53:49.348Z,12.01
2019-05-01T07:56:52.436Z,11.99
2019-05-01T07:59:58.394Z,12.31
2019-05-01T08:03:02.656Z,12.13
2019-05-01T08:06:05.923Z,12.20
2019-05-01T08:09:11.351Z,11.71
2019-05-01T08:12:18.876Z,11.78
2019-05-01T08:15:22.532Z,11.95
2019-05-01T08:18:51.342Z,12.18
2019-05-01T08:22:03.091Z,11.97
2019-05-01T08:25:08.008Z,12.09
2019-05-01T08:28:22.649Z,12.17
2019-05-01T08:31:38.560Z,12.18
2019-05-01T08:34:48.671Z,12.23
2019-05-01T08:37:46.301Z,12.30
2019-05-01T08:40:50.782Z,12.29
2019-05-01T08:43:55.892Z,12.22
2019-05-01T08:47:05.793Z,12.28
2019-05-01T08:50:11.670Z,12.30
2019-05-01T08:53:18.113Z,12.21
2019-05-01T08:56:22.081Z,12.23
2019-05-01T08:59:25.797Z,12.42
2019-05-01T09:02:28.894Z,12.31
2019-05-01T09:05:33.902Z,12.46
2019-05-01T09:08:36.897Z,12.42
2019-05-01T09:11:39.827Z,12.57
2019-05-01T09:14:42.756Z,12.45
2019-05-01T09:17:45.703Z,12.54
2019-05-01T09:20:51.031Z,12.51
2019-05-01T09:23:53.978Z,12.36
2019-05-01T09:27:24.008Z,12.45
2019-05-01T09:30:31.478Z,12.54
2019-05-01T09:33:34.533Z,12.67
2019-05-01T09:36:38.547Z,12.74
2019-05-01T09:39:41.570Z,12.58
2019-05-01T09:42:44.723Z,12.84
2019-05-01T09:45:48.234Z,12.76
2019-05-01T09:48:51.259Z,12.85
2019-05-01T09:52:01.958Z,12.83
2019-05-01T09:55:17.963Z,12.82
2019-05-01T09:58:20.941Z,12.70
2019-05-01T10:01:31.446Z,12.83
2019-05-01T10:04:31.215Z,12.87
2019-05-01T10:07:34.701Z,12.86
2019-05-01T10:10:37.617Z,12.90
2019-05-01T10:13:40.916Z,12.92
2019-05-01T10:16:43.817Z,13.01
2019-05-01T10:19:46.747Z,12.92
2019-05-01T10:22:51.644Z,12.85
2019-05-01T10:25:57.096Z,12.92
2019-05-01T10:29:21.382Z,12.82
2019-05-01T10:32:44.505Z,12.95
2019-05-01T10:36:07.044Z,13.17
2019-05-01T10:39:10.759Z,13.11
2019-05-01T10:42:13.695Z,12.91
2019-05-01T10:45:16.625Z,13.14
2019-05-01T10:48:19.536Z,13.24
2019-05-01T10:51:22.465Z,13.08
2019-05-01T10:54:25.376Z,13.09
2019-05-01T10:57:28.302Z,13.07
2019-05-01T11:00:31.628Z,13.23
2019-05-01T11:03:34.541Z,13.01
2019-05-01T11:06:37.509Z,13.30
2019-05-01T11:09:40.425Z,13.28
2019-05-01T11:12:43.384Z,13.24
2019-05-01T11:15:46.316Z,13.43
2019-05-01T11:18:49.229Z,13.53
2019-05-01T11:21:52.279Z,13.79
2019-05-01T11:24:55.215Z,13.86
2019-05-01T11:27:58.140Z,13.97
2019-05-01T11:31:01.060Z,14.41
2019-05-01T11:34:26.331Z,15.15
2019-05-01T11:37:40.057Z,15.31
2019-05-01T11:40:46.648Z,15.38
2019-05-01T11:43:49.574Z,16.26
2019-05-01T11:46:52.515Z,16.23
2019-05-01T11:49:55.414Z,16.37
2019-05-01T11:52:59.336Z,15.99
2019-05-01T11:56:02.238Z,15.86
2019-05-01T11:59:05.177Z,16.29
2019-05-01T12:02:08.117Z,15.89
2019-05-01T12:05:11.024Z,16.10
2019-05-01T12:08:13.992Z,16.42
2019-05-01T12:11:18.811Z,16.79
2019-05-01T12:14:21.769Z,16.99
2019-05-01T12:17:33.843Z,17.03
2019-05-01T12:20:36.794Z,17.33
2019-05-01T12:23:39.724Z,17.68
2019-05-01T12:26:42.635Z,17.32
2019-05-01T12:29:45.597Z,17.29
2019-05-01T12:32:48.671Z,17.08
2019-05-01T12:35:54.012Z,17.67
2019-05-01T12:38:57.271Z,17.25
2019-05-01T12:42:01.192Z,17.67
2019-05-01T12:45:07.163Z,18.13
2019-05-01T12:48:10.856Z,17.59
2019-05-01T12:51:13.875Z,18.10
2019-05-01T12:54:35.259Z,18.24
2019-05-01T12:57:38.185Z,18.21
2019-05-01T13:00:44.448Z,18.31
2019-05-01T13:03:47.408Z,18.27
2019-05-01T13:06:55.729Z,18.09
2019-05-01T13:09:59.182Z,18.48
2019-05-01T13:13:02.117Z,18.40
2019-05-01T13:16:06.151Z,18.62
2019-05-01T13:19:09.078Z,18.78
2019-05-01T13:22:11.993Z,18.81
2019-05-01T13:25:14.936Z,18.74
2019-05-01T13:28:36.146Z,18.76
2019-05-01T13:31:52.583Z,18.82
2019-05-01T13:34:55.523Z,18.90
2019-05-01T13:37:59.532Z,18.62
2019-05-01T13:41:02.507Z,18.90
2019-05-01T13:44:05.617Z,18.92
2019-05-01T13:47:08.570Z,19.02
2019-05-01T13:50:11.879Z,19.05
2019-05-01T13:53:14.936Z,19.40
2019-05-01T13:56:17.975Z,19.23
2019-05-01T13:59:20.885Z,19.38
2019-05-01T14:02:23.838Z,19.10
2019-05-01T14:05:27.081Z,19.28
2019-05-01T14:08:29.993Z,19.34
2019-05-01T14:11:32.934Z,19.32
2019-05-01T14:14:35.867Z,19.58
2019-05-01T14:17:38.804Z,19.31
2019-05-01T14:21:16.508Z,19.52
2019-05-01T14:24:32.057Z,19.32
2019-05-01T14:27:34.983Z,19.35
2019-05-01T14:30:37.925Z,19.67
2019-05-01T14:33:40.835Z,19.50
2019-05-01T14:36:43.782Z,19.67
2019-05-01T14:39:46.845Z,19.66
2019-05-01T14:42:49.778Z,19.49
2019-05-01T14:45:52.692Z,19.56
2019-05-01T14:48:55.626Z,19.75
2019-05-01T14:51:58.584Z,19.61
2019-05-01T14:55:01.527Z,19.79
2019-05-01T14:58:04.585Z,19.56
2019-05-01T15:01:07.507Z,19.63
2019-05-01T15:04:10.458Z,19.59
2019-05-01T15:07:14.394Z,19.29
2019-05-01T15:10:17.835Z,19.31
2019-05-01T15:13:41.831Z,19.20
2019-05-01T15:16:49.650Z,19.26
2019-05-01T15:20:00.518Z,19.42
2019-05-01T15:23:03.491Z,19.30
2019-05-01T15:26:06.428Z,19.22
2019-05-01T15:29:09.368Z,18.95
2019-05-01T15:32:12.273Z,18.96
2019-05-01T15:35:15.203Z,19.11
2019-05-01T15:38:18.156Z,18.87
2019-05-01T15:41:43.855Z,19.00
2019-05-01T15:44:47.887Z,18.40
2019-05-01T15:47:50.800Z,18.28
2019-05-01T15:50:53.737Z,18.28
2019-05-01T15:53:56.687Z,17.85
2019-05-01T15:56:59.616Z,17.82
2019-05-01T16:00:04.196Z,17.69
2019-05-01T16:03:09.188Z,17.67
2019-05-01T16:06:12.219Z,17.50
2019-05-01T16:09:15.331Z,17.49
2019-05-01T16:12:38.609Z,17.33
2019-05-01T16:15:41.549Z,17.30
2019-05-01T16:18:44.465Z,17.25
2019-05-01T16:21:47.756Z,16.99
2019-05-01T16:24:50.659Z,16.97
2019-05-01T16:27:53.591Z,16.98
2019-05-01T16:30:57.222Z,16.85
2019-05-01T16:34:01.236Z,16.62
2019-05-01T16:37:04.389Z,16.77
2019-05-01T16:40:17.595Z,16.66
2019-05-01T16:43:20.530Z,16.54
2019-05-01T16:46:23.469Z,16.61
2019-05-01T16:49:26.389Z,16.47
2019-05-01T16:52:31.242Z,16.51
2019-05-01T16:55:34.178Z,16.63
2019-05-01T16:58:37.591Z,16.34
2019-05-01T17:02:03.184Z,16.42
2019-05-01T17:05:24.286Z,16.54
2019-05-01T17:08:36.678Z,16.31
2019-05-01T17:11:40.092Z,16.37
2019-05-01T17:14:43.008Z,16.24
2019-05-01T17:17:46.050Z,16.23
2019-05-01T17:20:48.970Z,16.05
2019-05-01T17:23:51.992Z,16.01
2019-05-01T17:26:55.324Z,16.03
2019-05-01T17:29:58.762Z,15.97
2019-05-01T17:33:01.694Z,15.99
2019-05-01T17:36:04.719Z,15.97
2019-05-01T17:39:07.841Z,16.01
2019-05-01T17:42:12.275Z,15.95
2019-05-01T17:45:15.222Z,15.89
2019-05-01T17:48:18.154Z,15.88
2019-05-01T17:51:21.055Z,15.90
2019-05-01T17:54:23.986Z,15.86
2019-05-01T17:57:26.912Z,15.79
2019-05-01T18:00:48.070Z,15.70
2019-05-01T18:04:25.394Z,15.72
2019-05-01T18:07:33.202Z,15.65
2019-05-01T18:10:34.210Z,15.60
2019-05-01T18:13:38.919Z,15.59
2019-05-01T18:16:42.174Z,15.53
2019-05-01T18:19:45.075Z,15.45
2019-05-01T18:23:12.118Z,15.51
2019-05-01T18:26:21.657Z,15.50
2019-05-01T18:29:44.741Z,15.31
2019-05-01T18:32:52.096Z,15.35
2019-05-01T18:35:52.818Z,15.26
2019-05-01T18:38:59.986Z,15.11
2019-05-01T18:42:08.352Z,14.99
2019-05-01T18:45:31.628Z,14.89
2019-05-01T18:48:34.538Z,14.84
2019-05-01T18:51:40.713Z,14.74
2019-05-01T18:54:42.978Z,14.59
2019-05-01T18:57:45.895Z,14.56
2019-05-01T19:00:48.832Z,14.60
2019-05-01T19:03:51.789Z,14.34
2019-05-01T19:06:54.716Z,14.18
2019-05-01T19:09:57.668Z,14.18
2019-05-01T19:13:00.596Z,14.15
2019-05-01T19:16:07.926Z,14.00
2019-05-01T19:19:08.501Z,14.01
2019-05-01T19:22:11.522Z,13.93
2019-05-01T19:25:16.423Z,13.86
2019-05-01T19:28:20.707Z,13.70
2019-05-01T19:31:23.644Z,13.68
2019-05-01T19:34:26.567Z,13.71
2019-05-01T19:37:31.065Z,13.68
2019-05-01T19:40:34.467Z,13.58
2019-05-01T19:43:40.580Z,13.39
2019-05-01T19:46:43.433Z,13.39
2019-05-01T19:49:46.492Z,13.30
2019-05-01T19:52:49.387Z,13.37
2019-05-01T19:55:52.317Z,13.44
2019-05-01T19:58:55.342Z,13.48
2019-05-01T20:01:58.279Z,13.29
2019-05-01T20:05:01.329Z,13.16
2019-05-01T20:08:04.345Z,13.27
2019-05-01T20:11:09.534Z,13.18
2019-05-01T20:14:12.190Z,13.17
2019-05-01T20:17:15.129Z,13.18
2019-05-01T20:20:18.028Z,13.06
2019-05-01T20:23:21.165Z,13.12
2019-05-01T20:26:26.940Z,13.04
2019-05-01T20:29:28.919Z,13.09
2019-05-01T20:32:31.850Z,13.11
2019-05-01T20:35:34.779Z,13.05
2019-05-01T20:38:37.699Z,12.95
2019-05-01T20:41:40.736Z,13.10
2019-05-01T20:44:43.641Z,13.02
2019-05-01T20:47:48.175Z,13.07
2019-05-01T20:50:51.284Z,12.79
2019-05-01T20:53:54.222Z,12.72
2019-05-01T20:57:02.198Z,12.77
2019-05-01T21:00:06.346Z,12.83
2019-05-01T21:03:14.164Z,12.84
2019-05-01T21:06:28.369Z,12.91
2019-05-01T21:09:46.743Z,12.69
2019-05-01T21:12:39.002Z,12.90
2019-05-01T21:15:41.907Z,12.86
2019-05-01T21:18:45.626Z,12.87
2019-05-01T21:21:48.524Z,12.79
2019-05-01T21:24:53.161Z,12.60
2019-05-01T21:27:56.735Z,12.43
2019-05-01T21:30:59.928Z,12.41
2019-05-01T21:34:04.282Z,12.20
2019-05-01T21:37:07.659Z,12.27
2019-05-01T21:40:12.746Z,12.32
2019-05-01T21:43:15.745Z,12.16
2019-05-01T21:46:18.643Z,12.25
2019-05-01T21:49:22.936Z,12.10
2019-05-01T21:52:27.013Z,12.04
2019-05-01T21:55:31.791Z,11.69
2019-05-01T21:58:35.934Z,12.06
2019-05-01T22:01:39.062Z,11.98
2019-05-01T22:04:42.003Z,11.80
2019-05-01T22:07:45.223Z,11.86
2019-05-01T22:10:52.069Z,11.79
2019-05-01T22:13:55.000Z,11.81
2019-05-01T22:16:58.815Z,11.89
2019-05-01T22:20:01.936Z,11.95
2019-05-01T22:23:10.782Z,12.00
2019-05-01T22:26:13.802Z,11.90
2019-05-01T22:29:18.704Z,11.92
2019-05-01T22:32:41.572Z,11.98
2019-05-01T22:35:47.604Z,11.77
2019-05-01T22:38:50.519Z,11.84
2019-05-01T22:41:53.438Z,12.00
2019-05-01T22:44:56.346Z,12.04
2019-05-01T22:47:59.355Z,11.84
2019-05-01T22:51:18.025Z,11.73
2019-05-01T22:54:20.944Z,11.79
2019-05-01T22:57:23.871Z,11.53
2019-05-01T23:01:02.837Z,11.50
2019-05-01T23:04:07.466Z,11.69
2019-05-01T23:07:11.803Z,11.60
2019-05-01T23:10:16.206Z,11.62
2019-05-01T23:13:19.132Z,11.70
2019-05-01T23:16:28.737Z,11.50
2019-05-01T23:19:29.672Z,11.24
2019-05-01T23:22:32.737Z,11.20
2019-05-01T23:25:36.499Z,11.18
2019-05-01T23:28:41.087Z,11.24
2019-05-01T23:31:44.089Z,11.36
2019-05-01T23:34:47.004Z,11.23
2019-05-01T23:37:49.944Z,11.23
2019-05-01T23:40:53.006Z,11.16
2019-05-01T23:43:58.113Z,11.07
2019-05-01T23:47:00.951Z,11.25
2019-05-01T23:50:04.600Z,11.31
2019-05-01T23:53:09.079Z,11.20
2019-05-01T23:56:12.336Z,11.25
2019-05-01T23:59:15.611Z,11.13
